sensor_id;sensor_type;location;lat;lon;timestamp;temperature;humidity
40059;SHT31;25763;49.972;8.568;2024-01-15T00:01:42;-1.73;83.59
40059;SHT31;25763;49.972;8.568;2024-01-15T00:04:07;-1.73;83.50
40059;SHT31;25763;49.972;8.568;2024-01-15T00:06:33;-1.82;83.58
40059;SHT31;25763;49.972;8.568;2024-01-15T00:08:58;-1.75;83.50
40059;SHT31;25763;49.972;8.568;2024-01-15T00:11:24;-1.76;83.55
40059;SHT31;25763;49.972;8.568;2024-01-15T00:13:49;-1.76;83.72
40059;SHT31;25763;49.972;8.568;2024-01-15T00:16:14;-1.73;83.64
40059;SHT31;25763;49.972;8.568;2024-01-15T00:18:40;-1.65;83.65
40059;SHT31;25763;49.972;8.568;2024-01-15T00:21:05;-1.65;83.72
40059;SHT31;25763;49.972;8.568;2024-01-15T00:23:30;-1.61;83.64
40059;SHT31;25763;49.972;8.568;2024-01-15T00:25:55;-1.68;83.82
40059;SHT31;25763;49.972;8.568;2024-01-15T00:28:21;-1.68;83.98
40059;SHT31;25763;49.972;8.568;2024-01-15T00:30:46;-1.68;83.98
40059;SHT31;25763;49.972;8.568;2024-01-15T00:33:11;-1.64;84.11
40059;SHT31;25763;49.972;8.568;2024-01-15T00:35:37;-1.57;84.07
40059;SHT31;25763;49.972;8.568;2024-01-15T00:38:03;-1.55;83.90
40059;SHT31;25763;49.972;8.568;2024-01-15T00:40:28;-1.61;83.93
40059;SHT31;25763;49.972;8.568;2024-01-15T00:42:53;-1.65;83.94
40059;SHT31;25763;49.972;8.568;2024-01-15T00:45:19;-1.61;84.11
40059;SHT31;25763;49.972;8.568;2024-01-15T00:47:44;-1.62;84.26
40059;SHT31;25763;49.972;8.568;2024-01-15T00:50:09;-1.62;84.29
40059;SHT31;25763;49.972;8.568;2024-01-15T00:52:35;-1.61;84.30
40059;SHT31;25763;49.972;8.568;2024-01-15T00:55:00;-1.58;84.28
40059;SHT31;25763;49.972;8.568;2024-01-15T00:57:25;-1.57;84.18
40059;SHT31;25763;49.972;8.568;2024-01-15T00:59:51;-1.59;84.19
40059;SHT31;25763;49.972;8.568;2024-01-15T01:02:16;-1.58;84.09
40059;SHT31;25763;49.972;8.568;2024-01-15T01:04:41;-1.55;83.97
40059;SHT31;25763;49.972;8.568;2024-01-15T01:07:07;-1.59;83.76
40059;SHT31;25763;49.972;8.568;2024-01-15T01:09:32;-1.62;83.63
40059;SHT31;25763;49.972;8.568;2024-01-15T01:11:58;-1.57;83.66
40059;SHT31;25763;49.972;8.568;2024-01-15T01:14:23;-1.57;83.39
40059;SHT31;25763;49.972;8.568;2024-01-15T01:16:48;-1.58;83.22
40059;SHT31;25763;49.972;8.568;2024-01-15T01:19:14;-1.54;83.04
40059;SHT31;25763;49.972;8.568;2024-01-15T01:21:39;-1.54;82.86
40059;SHT31;25763;49.972;8.568;2024-01-15T01:24:05;-1.50;82.74
40059;SHT31;25763;49.972;8.568;2024-01-15T01:26:31;-1.48;82.46
40059;SHT31;25763;49.972;8.568;2024-01-15T01:28:56;-1.46;82.36
40059;SHT31;25763;49.972;8.568;2024-01-15T01:31:23;-1.46;82.24
40059;SHT31;25763;49.972;8.568;2024-01-15T01:33:48;-1.46;82.09
40059;SHT31;25763;49.972;8.568;2024-01-15T01:36:14;-1.43;82.08
40059;SHT31;25763;49.972;8.568;2024-01-15T01:38:40;-1.39;81.96
40059;SHT31;25763;49.972;8.568;2024-01-15T01:41:05;-1.37;81.72
40059;SHT31;25763;49.972;8.568;2024-01-15T01:43:31;-1.40;81.64
40059;SHT31;25763;49.972;8.568;2024-01-15T01:45:57;-1.41;81.55
40059;SHT31;25763;49.972;8.568;2024-01-15T01:48:25;-1.31;81.65
40059;SHT31;25763;49.972;8.568;2024-01-15T01:50:54;-1.37;81.36
40059;SHT31;25763;49.972;8.568;2024-01-15T01:53:20;-1.33;81.40
40059;SHT31;25763;49.972;8.568;2024-01-15T01:55:46;-1.31;81.35
40059;SHT31;25763;49.972;8.568;2024-01-15T01:58:13;-1.30;81.29
40059;SHT31;25763;49.972;8.568;2024-01-15T02:00:38;-1.29;81.19
40059;SHT31;25763;49.972;8.568;2024-01-15T02:03:04;-1.27;81.16
40059;SHT31;25763;49.972;8.568;2024-01-15T02:05:30;-1.24;81.15
40059;SHT31;25763;49.972;8.568;2024-01-15T02:07:56;-1.26;81.04
40059;SHT31;25763;49.972;8.568;2024-01-15T02:10:21;-1.23;80.94
40059;SHT31;25763;49.972;8.568;2024-01-15T02:12:46;-1.22;80.81
40059;SHT31;25763;49.972;8.568;2024-01-15T02:15:14;-1.15;80.86
40059;SHT31;25763;49.972;8.568;2024-01-15T02:17:59;-1.19;80.82
40059;SHT31;25763;49.972;8.568;2024-01-15T02:20:25;-1.19;80.73
40059;SHT31;25763;49.972;8.568;2024-01-15T02:22:51;-1.15;80.80
40059;SHT31;25763;49.972;8.568;2024-01-15T02:25:16;-1.15;80.77
40059;SHT31;25763;49.972;8.568;2024-01-15T02:27:42;-1.16;80.78
40059;SHT31;25763;49.972;8.568;2024-01-15T02:30:09;-1.08;80.82
40059;SHT31;25763;49.972;8.568;2024-01-15T02:32:36;-1.09;80.74
40059;SHT31;25763;49.972;8.568;2024-01-15T02:35:01;-1.09;80.74
40059;SHT31;25763;49.972;8.568;2024-01-15T02:37:26;-1.12;80.75
40059;SHT31;25763;49.972;8.568;2024-01-15T02:39:52;-1.16;80.81
40059;SHT31;25763;49.972;8.568;2024-01-15T02:42:17;-1.20;80.84
40059;SHT31;25763;49.972;8.568;2024-01-15T02:44:43;-1.24;80.95
40059;SHT31;25763;49.972;8.568;2024-01-15T02:47:08;-1.20;81.10
40059;SHT31;25763;49.972;8.568;2024-01-15T02:49:33;-1.20;81.08
40059;SHT31;25763;49.972;8.568;2024-01-15T02:51:59;-1.20;81.17
40059;SHT31;25763;49.972;8.568;2024-01-15T02:54:24;-1.20;81.28
40059;SHT31;25763;49.972;8.568;2024-01-15T02:56:49;-1.23;81.34
40059;SHT31;25763;49.972;8.568;2024-01-15T02:59:15;-1.24;81.40
40059;SHT31;25763;49.972;8.568;2024-01-15T03:01:40;-1.26;81.53
40059;SHT31;25763;49.972;8.568;2024-01-15T03:04:05;-1.20;81.71
40059;SHT31;25763;49.972;8.568;2024-01-15T03:06:31;-1.20;81.65
40059;SHT31;25763;49.972;8.568;2024-01-15T03:08:56;-1.24;81.82
40059;SHT31;25763;49.972;8.568;2024-01-15T03:11:21;-1.20;81.92
40059;SHT31;25763;49.972;8.568;2024-01-15T03:13:47;-1.26;82.01
40059;SHT31;25763;49.972;8.568;2024-01-15T03:16:12;-1.20;82.08
40059;SHT31;25763;49.972;8.568;2024-01-15T03:18:37;-1.22;82.15
40059;SHT31;25763;49.972;8.568;2024-01-15T03:21:03;-1.27;82.58
40059;SHT31;25763;49.972;8.568;2024-01-15T03:23:29;-1.24;82.88
40059;SHT31;25763;49.972;8.568;2024-01-15T03:25:55;-1.23;82.99
40059;SHT31;25763;49.972;8.568;2024-01-15T03:28:20;-1.27;83.38
40059;SHT31;25763;49.972;8.568;2024-01-15T03:30:45;-1.30;83.44
40059;SHT31;25763;49.972;8.568;2024-01-15T03:33:10;-1.24;83.33
40059;SHT31;25763;49.972;8.568;2024-01-15T03:35:36;-1.22;83.19
40059;SHT31;25763;49.972;8.568;2024-01-15T03:38:01;-1.20;83.09
40059;SHT31;25763;49.972;8.568;2024-01-15T03:40:26;-1.20;82.93
40059;SHT31;25763;49.972;8.568;2024-01-15T03:42:52;-1.22;82.74
40059;SHT31;25763;49.972;8.568;2024-01-15T03:45:17;-1.29;82.66
40059;SHT31;25763;49.972;8.568;2024-01-15T03:47:42;-1.27;82.69
40059;SHT31;25763;49.972;8.568;2024-01-15T03:50:08;-1.27;82.73
40059;SHT31;25763;49.972;8.568;2024-01-15T03:52:33;-1.29;82.59
40059;SHT31;25763;49.972;8.568;2024-01-15T03:54:59;-1.26;82.76
40059;SHT31;25763;49.972;8.568;2024-01-15T03:57:24;-1.22;82.68
40059;SHT31;25763;49.972;8.568;2024-01-15T03:59:49;-1.27;82.50
40059;SHT31;25763;49.972;8.568;2024-01-15T04:02:15;-1.23;82.64
40059;SHT31;25763;49.972;8.568;2024-01-15T04:04:41;-1.23;82.61
40059;SHT31;25763;49.972;8.568;2024-01-15T04:07:08;-1.22;82.67
40059;SHT31;25763;49.972;8.568;2024-01-15T04:09:34;-1.20;82.58
40059;SHT31;25763;49.972;8.568;2024-01-15T04:11:59;-1.20;82.61
40059;SHT31;25763;49.972;8.568;2024-01-15T04:14:24;-1.22;82.54
40059;SHT31;25763;49.972;8.568;2024-01-15T04:16:49;-1.13;82.56
40059;SHT31;25763;49.972;8.568;2024-01-15T04:19:15;-1.15;82.46
40059;SHT31;25763;49.972;8.568;2024-01-15T04:21:40;-1.13;82.44
40059;SHT31;25763;49.972;8.568;2024-01-15T04:24:06;-1.17;82.41
40059;SHT31;25763;49.972;8.568;2024-01-15T04:26:31;-1.09;82.36
40059;SHT31;25763;49.972;8.568;2024-01-15T04:28:57;-1.03;82.34
40059;SHT31;25763;49.972;8.568;2024-01-15T04:31:24;-1.08;82.41
40059;SHT31;25763;49.972;8.568;2024-01-15T04:33:50;-1.03;82.54
40059;SHT31;25763;49.972;8.568;2024-01-15T04:36:16;-1.00;82.50
40059;SHT31;25763;49.972;8.568;2024-01-15T04:38:41;-1.03;82.36
40059;SHT31;25763;49.972;8.568;2024-01-15T04:41:11;-1.06;82.53
40059;SHT31;25763;49.972;8.568;2024-01-15T04:43:36;-1.08;82.70
40059;SHT31;25763;49.972;8.568;2024-01-15T04:46:02;-1.06;82.67
40059;SHT31;25763;49.972;8.568;2024-01-15T04:48:28;-1.06;82.90
40059;SHT31;25763;49.972;8.568;2024-01-15T04:50:53;-1.00;82.90
40059;SHT31;25763;49.972;8.568;2024-01-15T04:53:19;-0.98;82.85
40059;SHT31;25763;49.972;8.568;2024-01-15T04:55:44;-0.98;82.72
40059;SHT31;25763;49.972;8.568;2024-01-15T04:58:09;-0.96;82.62
40059;SHT31;25763;49.972;8.568;2024-01-15T05:00:34;-0.95;82.68
40059;SHT31;25763;49.972;8.568;2024-01-15T05:03:00;-0.98;82.68
40059;SHT31;25763;49.972;8.568;2024-01-15T05:05:25;-0.91;82.74
40059;SHT31;25763;49.972;8.568;2024-01-15T05:07:51;-0.91;82.65
40059;SHT31;25763;49.972;8.568;2024-01-15T05:10:16;-0.91;82.69
40059;SHT31;25763;49.972;8.568;2024-01-15T05:12:41;-0.88;82.81
40059;SHT31;25763;49.972;8.568;2024-01-15T05:15:07;-0.85;82.89
40059;SHT31;25763;49.972;8.568;2024-01-15T05:17:32;-0.89;82.94
40059;SHT31;25763;49.972;8.568;2024-01-15T05:19:58;-0.85;82.92
40059;SHT31;25763;49.972;8.568;2024-01-15T05:22:23;-0.88;82.83
40059;SHT31;25763;49.972;8.568;2024-01-15T05:24:50;-0.88;82.90
40059;SHT31;25763;49.972;8.568;2024-01-15T05:27:15;-0.87;82.89
40059;SHT31;25763;49.972;8.568;2024-01-15T05:29:41;-0.91;82.72
40059;SHT31;25763;49.972;8.568;2024-01-15T05:32:06;-0.91;82.72
40059;SHT31;25763;49.972;8.568;2024-01-15T05:34:31;-0.87;82.70
40059;SHT31;25763;49.972;8.568;2024-01-15T05:36:57;-0.92;82.60
40059;SHT31;25763;49.972;8.568;2024-01-15T05:39:22;-0.87;82.78
40059;SHT31;25763;49.972;8.568;2024-01-15T05:41:47;-0.89;82.66
40059;SHT31;25763;49.972;8.568;2024-01-15T05:44:12;-0.89;82.90
40059;SHT31;25763;49.972;8.568;2024-01-15T05:46:38;-0.91;82.93
40059;SHT31;25763;49.972;8.568;2024-01-15T05:49:03;-0.88;83.00
40059;SHT31;25763;49.972;8.568;2024-01-15T05:51:29;-0.87;83.21
40059;SHT31;25763;49.972;8.568;2024-01-15T05:53:54;-0.89;83.73
40059;SHT31;25763;49.972;8.568;2024-01-15T05:56:19;-0.92;84.17
40059;SHT31;25763;49.972;8.568;2024-01-15T05:58:45;-0.91;84.35
40059;SHT31;25763;49.972;8.568;2024-01-15T06:01:10;-0.96;84.65
40059;SHT31;25763;49.972;8.568;2024-01-15T06:03:35;-0.96;84.74
40059;SHT31;25763;49.972;8.568;2024-01-15T06:06:01;-0.89;84.83
40059;SHT31;25763;49.972;8.568;2024-01-15T06:08:26;-0.93;84.84
40059;SHT31;25763;49.972;8.568;2024-01-15T06:10:53;-0.96;85.02
40059;SHT31;25763;49.972;8.568;2024-01-15T06:13:18;-1.03;85.25
40059;SHT31;25763;49.972;8.568;2024-01-15T06:15:43;-1.00;85.47
40059;SHT31;25763;49.972;8.568;2024-01-15T06:18:10;-0.96;85.45
40059;SHT31;25763;49.972;8.568;2024-01-15T06:20:35;-1.05;85.53
40059;SHT31;25763;49.972;8.568;2024-01-15T06:23:01;-1.02;85.60
40059;SHT31;25763;49.972;8.568;2024-01-15T06:25:26;-1.02;85.44
40059;SHT31;25763;49.972;8.568;2024-01-15T06:27:51;-0.98;85.59
40059;SHT31;25763;49.972;8.568;2024-01-15T06:30:17;-0.99;85.56
40059;SHT31;25763;49.972;8.568;2024-01-15T06:32:42;-0.95;85.45
40059;SHT31;25763;49.972;8.568;2024-01-15T06:35:08;-0.85;85.28
40059;SHT31;25763;49.972;8.568;2024-01-15T06:37:35;-0.88;85.05
40059;SHT31;25763;49.972;8.568;2024-01-15T06:40:00;-0.85;84.89
40059;SHT31;25763;49.972;8.568;2024-01-15T06:42:26;-0.81;84.73
40059;SHT31;25763;49.972;8.568;2024-01-15T06:44:51;-0.85;84.63
40059;SHT31;25763;49.972;8.568;2024-01-15T06:47:16;-0.81;84.53
40059;SHT31;25763;49.972;8.568;2024-01-15T06:49:42;-0.79;84.42
40059;SHT31;25763;49.972;8.568;2024-01-15T06:52:08;-0.85;84.46
40059;SHT31;25763;49.972;8.568;2024-01-15T06:54:33;-0.85;84.27
40059;SHT31;25763;49.972;8.568;2024-01-15T06:56:58;-0.87;84.41
40059;SHT31;25763;49.972;8.568;2024-01-15T06:59:24;-0.82;84.42
40059;SHT31;25763;49.972;8.568;2024-01-15T07:01:49;-0.81;84.49
40059;SHT31;25763;49.972;8.568;2024-01-15T07:04:15;-0.84;84.53
40059;SHT31;25763;49.972;8.568;2024-01-15T07:06:40;-0.84;84.88
40059;SHT31;25763;49.972;8.568;2024-01-15T07:09:06;-0.85;84.78
40059;SHT31;25763;49.972;8.568;2024-01-15T07:11:31;-0.82;84.73
40059;SHT31;25763;49.972;8.568;2024-01-15T07:13:56;-0.82;84.75
40059;SHT31;25763;49.972;8.568;2024-01-15T07:16:22;-0.84;84.72
40059;SHT31;25763;49.972;8.568;2024-01-15T07:18:47;-0.81;84.77
40059;SHT31;25763;49.972;8.568;2024-01-15T07:21:12;-0.75;84.69
40059;SHT31;25763;49.972;8.568;2024-01-15T07:23:38;-0.77;84.67
40059;SHT31;25763;49.972;8.568;2024-01-15T07:26:03;-0.75;84.78
40059;SHT31;25763;49.972;8.568;2024-01-15T07:28:30;-0.72;84.78
40059;SHT31;25763;49.972;8.568;2024-01-15T07:30:56;-0.68;84.62
40059;SHT31;25763;49.972;8.568;2024-01-15T07:33:21;-0.71;84.70
40059;SHT31;25763;49.972;8.568;2024-01-15T07:35:47;-0.70;84.67
40059;SHT31;25763;49.972;8.568;2024-01-15T07:38:12;-0.67;84.61
40059;SHT31;25763;49.972;8.568;2024-01-15T07:40:37;-0.64;84.55
40059;SHT31;25763;49.972;8.568;2024-01-15T07:43:03;-0.61;84.47
40059;SHT31;25763;49.972;8.568;2024-01-15T07:45:30;-0.58;84.45
40059;SHT31;25763;49.972;8.568;2024-01-15T07:47:55;-0.57;84.39
40059;SHT31;25763;49.972;8.568;2024-01-15T07:50:21;-0.53;84.32
40059;SHT31;25763;49.972;8.568;2024-01-15T07:52:46;-0.53;84.28
40059;SHT31;25763;49.972;8.568;2024-01-15T07:55:11;-0.49;84.15
40059;SHT31;25763;49.972;8.568;2024-01-15T07:57:37;-0.39;84.13
40059;SHT31;25763;49.972;8.568;2024-01-15T08:00:03;-0.37;84.03
40059;SHT31;25763;49.972;8.568;2024-01-15T08:02:30;-0.35;83.92
40059;SHT31;25763;49.972;8.568;2024-01-15T08:04:57;-0.30;83.78
40059;SHT31;25763;49.972;8.568;2024-01-15T08:07:24;-0.33;83.77
40059;SHT31;25763;49.972;8.568;2024-01-15T08:09:50;-0.22;83.66
40059;SHT31;25763;49.972;8.568;2024-01-15T08:12:16;-0.21;83.48
40059;SHT31;25763;49.972;8.568;2024-01-15T08:14:41;-0.28;83.42
40059;SHT31;25763;49.972;8.568;2024-01-15T08:17:06;-0.26;83.30
40059;SHT31;25763;49.972;8.568;2024-01-15T08:19:32;-0.23;83.34
40059;SHT31;25763;49.972;8.568;2024-01-15T08:21:57;-0.23;83.25
40059;SHT31;25763;49.972;8.568;2024-01-15T08:24:22;-0.12;83.26
40059;SHT31;25763;49.972;8.568;2024-01-15T08:26:48;-0.04;83.15
40059;SHT31;25763;49.972;8.568;2024-01-15T08:29:13;0.00;82.89
40059;SHT31;25763;49.972;8.568;2024-01-15T08:31:38;-0.01;82.63
40059;SHT31;25763;49.972;8.568;2024-01-15T08:34:04;0.06;82.66
40059;SHT31;25763;49.972;8.568;2024-01-15T08:36:30;0.00;82.48
40059;SHT31;25763;49.972;8.568;2024-01-15T08:38:56;0.02;82.47
40059;SHT31;25763;49.972;8.568;2024-01-15T08:41:21;0.16;82.59
40059;SHT31;25763;49.972;8.568;2024-01-15T08:43:47;0.16;82.42
40059;SHT31;25763;49.972;8.568;2024-01-15T08:46:13;0.16;82.01
40059;SHT31;25763;49.972;8.568;2024-01-15T08:48:38;0.20;81.97
40059;SHT31;25763;49.972;8.568;2024-01-15T08:51:04;0.26;81.77
40059;SHT31;25763;49.972;8.568;2024-01-15T08:53:30;0.29;81.54
40059;SHT31;25763;49.972;8.568;2024-01-15T08:55:55;0.31;81.25
40059;SHT31;25763;49.972;8.568;2024-01-15T08:58:21;0.40;81.07
40059;SHT31;25763;49.972;8.568;2024-01-15T09:00:46;0.42;80.97
40059;SHT31;25763;49.972;8.568;2024-01-15T09:03:11;0.49;80.87
40059;SHT31;25763;49.972;8.568;2024-01-15T09:05:37;0.49;80.79
40059;SHT31;25763;49.972;8.568;2024-01-15T09:08:03;0.55;80.72
40059;SHT31;25763;49.972;8.568;2024-01-15T09:10:28;0.51;80.50
40059;SHT31;25763;49.972;8.568;2024-01-15T09:12:53;0.58;80.54
40059;SHT31;25763;49.972;8.568;2024-01-15T09:15:18;0.64;80.47
40059;SHT31;25763;49.972;8.568;2024-01-15T09:17:45;0.72;80.41
40059;SHT31;25763;49.972;8.568;2024-01-15T09:20:11;0.66;80.42
40059;SHT31;25763;49.972;8.568;2024-01-15T09:22:39;0.62;80.40
40059;SHT31;25763;49.972;8.568;2024-01-15T09:25:08;0.66;80.49
40059;SHT31;25763;49.972;8.568;2024-01-15T09:27:35;0.64;80.30
40059;SHT31;25763;49.972;8.568;2024-01-15T09:30:00;0.68;80.32
40059;SHT31;25763;49.972;8.568;2024-01-15T09:32:25;0.65;80.34
40059;SHT31;25763;49.972;8.568;2024-01-15T09:34:51;0.70;80.06
40059;SHT31;25763;49.972;8.568;2024-01-15T09:37:16;0.76;80.11
40059;SHT31;25763;49.972;8.568;2024-01-15T09:39:41;0.80;79.87
40059;SHT31;25763;49.972;8.568;2024-01-15T09:42:07;0.82;79.73
40059;SHT31;25763;49.972;8.568;2024-01-15T09:44:34;0.79;79.64
40059;SHT31;25763;49.972;8.568;2024-01-15T09:47:00;0.76;79.84
40059;SHT31;25763;49.972;8.568;2024-01-15T09:49:26;0.80;79.77
40059;SHT31;25763;49.972;8.568;2024-01-15T09:51:51;0.82;79.71
40059;SHT31;25763;49.972;8.568;2024-01-15T09:54:17;0.79;79.63
40059;SHT31;25763;49.972;8.568;2024-01-15T09:56:46;0.96;79.63
40059;SHT31;25763;49.972;8.568;2024-01-15T09:59:18;1.04;79.37
40059;SHT31;25763;49.972;8.568;2024-01-15T10:01:45;1.08;79.09
40059;SHT31;25763;49.972;8.568;2024-01-15T10:04:13;1.11;78.96
40059;SHT31;25763;49.972;8.568;2024-01-15T10:06:42;1.11;78.79
40059;SHT31;25763;49.972;8.568;2024-01-15T10:09:08;1.16;78.75
40059;SHT31;25763;49.972;8.568;2024-01-15T10:11:34;1.16;78.68
40059;SHT31;25763;49.972;8.568;2024-01-15T10:14:00;1.24;78.72
40059;SHT31;25763;49.972;8.568;2024-01-15T10:16:26;1.27;78.47
40059;SHT31;25763;49.972;8.568;2024-01-15T10:18:51;1.32;78.49
40059;SHT31;25763;49.972;8.568;2024-01-15T10:21:16;1.35;78.25
40059;SHT31;25763;49.972;8.568;2024-01-15T10:23:42;1.42;78.27
40059;SHT31;25763;49.972;8.568;2024-01-15T10:26:07;1.39;78.07
40059;SHT31;25763;49.972;8.568;2024-01-15T10:28:33;1.46;78.07
40059;SHT31;25763;49.972;8.568;2024-01-15T10:30:59;1.59;77.99
40059;SHT31;25763;49.972;8.568;2024-01-15T10:33:25;1.52;77.86
40059;SHT31;25763;49.972;8.568;2024-01-15T10:35:57;1.49;77.81
40059;SHT31;25763;49.972;8.568;2024-01-15T10:38:24;1.43;77.89
40059;SHT31;25763;49.972;8.568;2024-01-15T10:40:56;1.53;78.08
40059;SHT31;25763;49.972;8.568;2024-01-15T10:43:22;1.58;77.89
40059;SHT31;25763;49.972;8.568;2024-01-15T10:45:49;1.62;78.01
40059;SHT31;25763;49.972;8.568;2024-01-15T10:48:17;1.56;77.99
40059;SHT31;25763;49.972;8.568;2024-01-15T10:50:44;1.48;78.03
40059;SHT31;25763;49.972;8.568;2024-01-15T10:53:11;1.42;78.36
40059;SHT31;25763;49.972;8.568;2024-01-15T10:55:38;1.36;78.26
40059;SHT31;25763;49.972;8.568;2024-01-15T10:58:05;1.43;78.30
40059;SHT31;25763;49.972;8.568;2024-01-15T11:00:33;1.51;78.10
40059;SHT31;25763;49.972;8.568;2024-01-15T11:03:01;1.49;77.80
40059;SHT31;25763;49.972;8.568;2024-01-15T11:05:26;1.42;78.08
40059;SHT31;25763;49.972;8.568;2024-01-15T11:07:55;1.38;78.35
40059;SHT31;25763;49.972;8.568;2024-01-15T11:10:46;1.41;78.37
40059;SHT31;25763;49.972;8.568;2024-01-15T11:13:21;1.48;78.28
40059;SHT31;25763;49.972;8.568;2024-01-15T11:18:27;1.88;77.33
40059;SHT31;25763;49.972;8.568;2024-01-15T11:23:57;2.22;76.66
40059;SHT31;25763;49.972;8.568;2024-01-15T11:26:36;2.06;76.51
40059;SHT31;25763;49.972;8.568;2024-01-15T11:29:06;2.08;76.79
40059;SHT31;25763;49.972;8.568;2024-01-15T11:34:03;2.08;76.56
40059;SHT31;25763;49.972;8.568;2024-01-15T11:42:03;2.05;76.47
40059;SHT31;25763;49.972;8.568;2024-01-15T11:44:30;2.05;76.44
40059;SHT31;25763;49.972;8.568;2024-01-15T11:47:02;2.09;76.38
40059;SHT31;25763;49.972;8.568;2024-01-15T11:52:06;2.02;76.38
40059;SHT31;25763;49.972;8.568;2024-01-15T11:54:34;2.08;76.67
40059;SHT31;25763;49.972;8.568;2024-01-15T11:57:04;2.12;76.65
40059;SHT31;25763;49.972;8.568;2024-01-15T11:59:33;2.09;76.84
40059;SHT31;25763;49.972;8.568;2024-01-15T12:01:58;2.08;76.64
40059;SHT31;25763;49.972;8.568;2024-01-15T12:04:23;2.09;76.86
40059;SHT31;25763;49.972;8.568;2024-01-15T12:06:49;2.09;76.71
40059;SHT31;25763;49.972;8.568;2024-01-15T12:09:14;2.04;76.81
40059;SHT31;25763;49.972;8.568;2024-01-15T12:11:42;2.08;76.88
40059;SHT31;25763;49.972;8.568;2024-01-15T12:14:10;2.01;76.86
40059;SHT31;25763;49.972;8.568;2024-01-15T12:16:35;2.02;76.81
40059;SHT31;25763;49.972;8.568;2024-01-15T12:19:00;2.11;77.05
40059;SHT31;25763;49.972;8.568;2024-01-15T12:21:26;2.08;76.68
40059;SHT31;25763;49.972;8.568;2024-01-15T12:23:52;2.13;76.99
40059;SHT31;25763;49.972;8.568;2024-01-15T12:26:18;2.08;76.57
40059;SHT31;25763;49.972;8.568;2024-01-15T12:28:43;2.16;76.57
40059;SHT31;25763;49.972;8.568;2024-01-15T12:31:08;2.19;76.40
40059;SHT31;25763;49.972;8.568;2024-01-15T12:33:34;2.18;76.21
40059;SHT31;25763;49.972;8.568;2024-01-15T12:35:59;2.22;76.22
40059;SHT31;25763;49.972;8.568;2024-01-15T12:38:24;2.19;76.20
40059;SHT31;25763;49.972;8.568;2024-01-15T12:40:50;2.21;76.44
40059;SHT31;25763;49.972;8.568;2024-01-15T12:43:17;2.26;76.40
40059;SHT31;25763;49.972;8.568;2024-01-15T12:45:42;2.21;75.94
40059;SHT31;25763;49.972;8.568;2024-01-15T12:48:08;2.23;76.12
40059;SHT31;25763;49.972;8.568;2024-01-15T12:50:34;2.22;75.90
40059;SHT31;25763;49.972;8.568;2024-01-15T12:53:01;2.22;76.00
40059;SHT31;25763;49.972;8.568;2024-01-15T12:55:26;2.32;76.09
40059;SHT31;25763;49.972;8.568;2024-01-15T12:57:52;2.30;75.99
40059;SHT31;25763;49.972;8.568;2024-01-15T13:00:20;2.37;75.99
40059;SHT31;25763;49.972;8.568;2024-01-15T13:02:45;2.45;75.89
40059;SHT31;25763;49.972;8.568;2024-01-15T13:05:11;2.40;75.54
40059;SHT31;25763;49.972;8.568;2024-01-15T13:07:37;2.42;75.57
40059;SHT31;25763;49.972;8.568;2024-01-15T13:10:02;2.50;75.63
40059;SHT31;25763;49.972;8.568;2024-01-15T13:12:28;2.49;75.32
40059;SHT31;25763;49.972;8.568;2024-01-15T13:14:53;2.52;75.51
40059;SHT31;25763;49.972;8.568;2024-01-15T13:17:19;2.58;75.69
40059;SHT31;25763;49.972;8.568;2024-01-15T13:19:46;2.60;75.39
40059;SHT31;25763;49.972;8.568;2024-01-15T13:22:11;2.57;75.13
40059;SHT31;25763;49.972;8.568;2024-01-15T13:24:39;2.54;75.08
40059;SHT31;25763;49.972;8.568;2024-01-15T13:27:04;2.58;75.07
40059;SHT31;25763;49.972;8.568;2024-01-15T13:29:31;2.60;75.00
40059;SHT31;25763;49.972;8.568;2024-01-15T13:31:57;2.53;74.77
40059;SHT31;25763;49.972;8.568;2024-01-15T13:34:23;2.56;74.80
40059;SHT31;25763;49.972;8.568;2024-01-15T13:36:49;2.56;74.86
40059;SHT31;25763;49.972;8.568;2024-01-15T13:39:15;2.49;74.54
40059;SHT31;25763;49.972;8.568;2024-01-15T13:41:45;2.49;74.50
40059;SHT31;25763;49.972;8.568;2024-01-15T13:44:11;2.52;74.74
40059;SHT31;25763;49.972;8.568;2024-01-15T13:46:36;2.45;74.33
40059;SHT31;25763;49.972;8.568;2024-01-15T13:49:03;2.45;74.43
40059;SHT31;25763;49.972;8.568;2024-01-15T13:51:31;2.45;74.53
40059;SHT31;25763;49.972;8.568;2024-01-15T13:53:56;2.42;74.13
40059;SHT31;25763;49.972;8.568;2024-01-15T13:56:22;2.39;74.35
40059;SHT31;25763;49.972;8.568;2024-01-15T13:58:47;2.40;74.19
40059;SHT31;25763;49.972;8.568;2024-01-15T14:01:13;2.49;74.17
40059;SHT31;25763;49.972;8.568;2024-01-15T14:03:38;2.58;73.66
40059;SHT31;25763;49.972;8.568;2024-01-15T14:06:04;2.75;73.47
40059;SHT31;25763;49.972;8.568;2024-01-15T14:08:34;2.87;73.19
40059;SHT31;25763;49.972;8.568;2024-01-15T14:10:59;2.88;73.10
40059;SHT31;25763;49.972;8.568;2024-01-15T14:13:24;2.87;73.17
40059;SHT31;25763;49.972;8.568;2024-01-15T14:15:50;2.84;73.21
40059;SHT31;25763;49.972;8.568;2024-01-15T14:18:16;2.85;73.15
40059;SHT31;25763;49.972;8.568;2024-01-15T14:20:42;2.77;72.76
40059;SHT31;25763;49.972;8.568;2024-01-15T14:23:08;2.80;73.06
40059;SHT31;25763;49.972;8.568;2024-01-15T14:25:34;2.75;72.86
40059;SHT31;25763;49.972;8.568;2024-01-15T14:27:59;2.71;72.74
40059;SHT31;25763;49.972;8.568;2024-01-15T14:30:25;2.71;72.83
40059;SHT31;25763;49.972;8.568;2024-01-15T14:32:50;2.68;72.87
40059;SHT31;25763;49.972;8.568;2024-01-15T14:35:15;2.67;72.69
40059;SHT31;25763;49.972;8.568;2024-01-15T14:37:41;2.68;72.38
40059;SHT31;25763;49.972;8.568;2024-01-15T14:40:06;2.70;72.71
40059;SHT31;25763;49.972;8.568;2024-01-15T14:42:41;2.75;72.09
40059;SHT31;25763;49.972;8.568;2024-01-15T14:45:07;2.81;72.00
40059;SHT31;25763;49.972;8.568;2024-01-15T14:47:38;2.80;72.05
40059;SHT31;25763;49.972;8.568;2024-01-15T14:50:08;2.85;71.78
40059;SHT31;25763;49.972;8.568;2024-01-15T14:52:33;2.89;71.40
40059;SHT31;25763;49.972;8.568;2024-01-15T14:54:59;2.92;71.15
40059;SHT31;25763;49.972;8.568;2024-01-15T14:57:25;2.92;71.37
40059;SHT31;25763;49.972;8.568;2024-01-15T14:59:50;2.89;71.02
40059;SHT31;25763;49.972;8.568;2024-01-15T15:02:16;2.91;71.28
40059;SHT31;25763;49.972;8.568;2024-01-15T15:04:41;2.91;71.19
40059;SHT31;25763;49.972;8.568;2024-01-15T15:07:07;2.84;70.97
40059;SHT31;25763;49.972;8.568;2024-01-15T15:09:33;2.81;70.83
40059;SHT31;25763;49.972;8.568;2024-01-15T15:11:59;2.77;71.22
40059;SHT31;25763;49.972;8.568;2024-01-15T15:14:24;2.77;71.06
40059;SHT31;25763;49.972;8.568;2024-01-15T15:16:50;2.78;71.19
40059;SHT31;25763;49.972;8.568;2024-01-15T15:19:15;2.71;71.05
40059;SHT31;25763;49.972;8.568;2024-01-15T15:21:42;2.75;70.17
40059;SHT31;25763;49.972;8.568;2024-01-15T15:24:08;2.77;70.64
40059;SHT31;25763;49.972;8.568;2024-01-15T15:26:34;2.75;70.30
40059;SHT31;25763;49.972;8.568;2024-01-15T15:28:59;2.77;70.67
40059;SHT31;25763;49.972;8.568;2024-01-15T15:31:24;2.74;70.26
40059;SHT31;25763;49.972;8.568;2024-01-15T15:33:50;2.70;70.20
40059;SHT31;25763;49.972;8.568;2024-01-15T15:36:15;2.70;70.07
40059;SHT31;25763;49.972;8.568;2024-01-15T15:38:41;2.64;70.42
40059;SHT31;25763;49.972;8.568;2024-01-15T15:41:06;2.57;70.49
40059;SHT31;25763;49.972;8.568;2024-01-15T15:43:32;2.57;70.68
40059;SHT31;25763;49.972;8.568;2024-01-15T15:45:57;2.53;70.81